createdAt,value
2022-11-26T00:02:20.532Z,70.60
2022-11-26T00:04:51.547Z,81.70
2022-11-26T00:07:25.643Z,76.00
2022-11-26T00:09:56.919Z,70.90
2022-11-26T00:12:28.644Z,64.80
2022-11-26T00:14:58.898Z,74.20
2022-11-26T00:17:28.858Z,70.40
2022-11-26T00:19:58.927Z,67.70
2022-11-26T00:22:32.428Z,72.30
2022-11-26T00:25:02.379Z,74.50
2022-11-26T00:27:32.887Z,71.80
2022-11-26T00:30:05.968Z,78.90
2022-11-26T00:32:35.802Z,72.30
2022-11-26T00:35:06.830Z,74.40
2022-11-26T00:37:40.528Z,74.50
2022-11-26T00:42:46.136Z,73.90
2022-11-26T00:45:21.867Z,80.90
2022-11-26T00:47:51.908Z,73.80
2022-11-26T00:50:23.384Z,79.00
2022-11-26T00:52:55.720Z,74.80
2022-11-26T00:55:34.086Z,80.80
2022-11-26T00:58:04.976Z,78.50
2022-11-26T01:00:35.928Z,80.90
2022-11-26T01:03:05.977Z,92.90
2022-11-26T01:05:36.782Z,112.90
2022-11-26T01:08:26.857Z,110.30
2022-11-26T01:11:01.809Z,88.60
2022-11-26T01:13:32.681Z,82.80
2022-11-26T01:16:07.727Z,76.70
2022-11-26T01:18:37.862Z,76.60
2022-11-26T01:21:09.627Z,80.70
2022-11-26T01:23:39.765Z,81.40
2022-11-26T01:26:16.626Z,84.90
2022-11-26T01:28:47.576Z,81.30
2022-11-26T01:31:20.053Z,75.20
2022-11-26T01:33:50.560Z,73.80
2022-11-26T01:36:27.186Z,78.80
2022-11-26T01:38:58.577Z,77.10
2022-11-26T01:41:47.297Z,82.10
2022-11-26T01:44:20.859Z,78.30
2022-11-26T01:46:52.020Z,82.60
2022-11-26T01:49:41.688Z,76.90
2022-11-26T01:52:21.699Z,78.70
2022-11-26T01:54:53.389Z,77.90
2022-11-26T01:57:26.298Z,74.50
2022-11-26T02:00:01.239Z,77.30
2022-11-26T02:02:31.596Z,78.00
2022-11-26T02:05:08.027Z,79.70
2022-11-26T02:07:38.623Z,83.90
2022-11-26T02:10:10.697Z,81.40
2022-11-26T02:12:41.818Z,81.70
2022-11-26T02:15:14.417Z,85.60
2022-11-26T02:17:47.040Z,84.30
2022-11-26T02:20:41.793Z,85.20
2022-11-26T02:23:42.357Z,86.40
2022-11-26T02:26:45.951Z,86.00
2022-11-26T02:29:29.119Z,92.10
2022-11-26T02:32:05.668Z,91.20
2022-11-26T02:34:44.295Z,94.80
2022-11-26T02:37:19.748Z,92.90
2022-11-26T02:39:49.498Z,94.40
2022-11-26T02:42:27.825Z,99.40
2022-11-26T02:45:02.537Z,124.80
2022-11-26T02:47:35.307Z,146.20
2022-11-26T02:50:10.784Z,128.00
2022-11-26T02:52:42.749Z,95.70
2022-11-26T02:55:15.697Z,97.90
2022-11-26T02:57:50.097Z,102.40
2022-11-26T03:00:21.520Z,94.80
2022-11-26T03:02:55.077Z,94.70
2022-11-26T03:05:26.139Z,86.60
2022-11-26T03:07:57.221Z,91.40
2022-11-26T03:10:29.210Z,89.50
2022-11-26T03:12:59.317Z,93.40
2022-11-26T03:15:29.065Z,90.20
2022-11-26T03:17:59.077Z,89.10
2022-11-26T03:20:29.071Z,93.20
2022-11-26T03:22:59.156Z,90.90
2022-11-26T03:25:29.117Z,94.90
2022-11-26T03:27:58.957Z,92.20
2022-11-26T03:30:29.327Z,90.60
2022-11-26T03:33:02.817Z,93.60
2022-11-26T03:35:32.978Z,98.00
2022-11-26T03:38:02.996Z,89.00
2022-11-26T03:40:33.104Z,91.80
2022-11-26T03:43:02.987Z,89.00
2022-11-26T03:45:32.796Z,91.50
2022-11-26T03:48:03.059Z,90.80
2022-11-26T03:50:33.258Z,91.60
2022-11-26T03:53:03.197Z,96.60
2022-11-26T03:55:33.101Z,90.20
2022-11-26T03:58:03.220Z,91.80
2022-11-26T04:00:36.138Z,86.10
2022-11-26T04:03:06.363Z,90.90
2022-11-26T04:05:36.502Z,105.20
2022-11-26T04:08:06.619Z,89.90
2022-11-26T04:10:36.798Z,91.80
2022-11-26T04:13:06.533Z,91.60
2022-11-26T04:15:36.487Z,106.40
2022-11-26T04:18:06.467Z,91.00
2022-11-26T04:20:36.308Z,87.90
2022-11-26T04:23:06.378Z,83.20
2022-11-26T04:25:36.587Z,86.80
2022-11-26T04:28:06.717Z,86.40
2022-11-26T04:30:36.956Z,86.80
2022-11-26T04:33:06.888Z,158.30
2022-11-26T04:35:37.601Z,169.70
2022-11-26T04:38:07.950Z,86.00
2022-11-26T04:40:38.158Z,93.00
2022-11-26T04:43:08.039Z,99.10
2022-11-26T04:45:37.981Z,91.20
2022-11-26T04:48:08.649Z,79.40
2022-11-26T04:50:38.498Z,86.60
2022-11-26T04:53:08.498Z,80.30
2022-11-26T04:55:38.550Z,82.60
2022-11-26T04:58:08.387Z,83.50
2022-11-26T05:00:40.095Z,85.60
2022-11-26T05:03:10.354Z,83.20
2022-11-26T05:05:40.802Z,85.80
2022-11-26T05:08:10.847Z,91.00
2022-11-26T05:10:40.831Z,85.40
2022-11-26T05:13:10.712Z,89.20
2022-11-26T05:15:40.938Z,86.50
2022-11-26T05:18:10.748Z,83.90
2022-11-26T05:20:40.600Z,82.40
2022-11-26T05:23:10.796Z,79.10
2022-11-26T05:25:40.926Z,79.50
2022-11-26T05:28:10.739Z,83.60
2022-11-26T05:30:40.709Z,84.20
2022-11-26T05:33:10.610Z,79.50
2022-11-26T05:35:40.388Z,77.70
2022-11-26T05:38:10.508Z,78.20
2022-11-26T05:40:40.879Z,83.00
2022-11-26T05:43:10.588Z,82.60
2022-11-26T05:45:40.699Z,82.70
2022-11-26T05:48:10.478Z,82.40
2022-11-26T05:50:40.730Z,85.60
2022-11-26T05:53:10.647Z,87.20
2022-11-26T05:55:40.462Z,82.30
2022-11-26T05:58:10.499Z,84.80
2022-11-26T06:00:40.228Z,80.50
2022-11-26T06:03:11.418Z,85.70
2022-11-26T06:05:41.440Z,82.40
2022-11-26T06:08:11.527Z,86.40
2022-11-26T06:10:42.958Z,76.90
2022-11-26T06:13:12.860Z,84.10
2022-11-26T06:15:44.609Z,82.80
2022-11-26T06:18:16.868Z,84.80
2022-11-26T06:20:47.298Z,83.50
2022-11-26T06:23:20.077Z,79.60
2022-11-26T06:25:49.987Z,79.30
2022-11-26T06:28:19.973Z,78.90
2022-11-26T06:30:49.880Z,85.00
2022-11-26T06:33:19.899Z,76.80
2022-11-26T06:35:49.819Z,78.60
2022-11-26T06:38:19.556Z,76.60
2022-11-26T06:40:50.341Z,79.00
2022-11-26T06:43:20.228Z,74.90
2022-11-26T06:45:50.654Z,81.70
2022-11-26T06:48:22.427Z,80.80
2022-11-26T06:50:52.698Z,82.30
2022-11-26T06:53:22.628Z,70.90
2022-11-26T06:55:52.628Z,73.60
2022-11-26T06:58:25.867Z,76.90
2022-11-26T07:03:31.947Z,77.70
2022-11-26T07:06:03.178Z,74.60
2022-11-26T07:08:35.208Z,77.20
2022-11-26T07:11:05.723Z,73.40
2022-11-26T07:13:35.608Z,80.00
2022-11-26T07:16:06.913Z,83.70
2022-11-26T07:18:36.917Z,76.60
2022-11-26T07:21:08.728Z,78.10
2022-11-26T07:23:39.667Z,83.10
2022-11-26T07:26:11.984Z,84.30
2022-11-26T07:28:42.059Z,76.30
2022-11-26T07:31:16.827Z,73.00
2022-11-26T07:33:48.113Z,78.30
2022-11-26T07:36:20.948Z,75.70
2022-11-26T07:38:50.927Z,73.90
2022-11-26T07:41:22.497Z,74.70
2022-11-26T07:43:52.857Z,73.70
2022-11-26T07:46:25.084Z,73.40
2022-11-26T07:48:56.745Z,59.90
2022-11-26T07:51:28.609Z,70.90
2022-11-26T07:54:00.400Z,67.20
2022-11-26T07:56:30.405Z,60.80
2022-11-26T07:59:00.687Z,67.30
2022-11-26T08:01:32.007Z,65.80
2022-11-26T08:04:05.268Z,72.20
2022-11-26T08:06:35.808Z,82.50
2022-11-26T08:09:07.344Z,96.00
2022-11-26T08:11:37.487Z,69.30
2022-11-26T08:14:10.984Z,62.00
2022-11-26T08:16:41.407Z,63.90
2022-11-26T08:19:14.802Z,65.10
2022-11-26T08:21:45.078Z,59.10
2022-11-26T08:24:20.172Z,58.90
2022-11-26T08:26:50.336Z,60.00
2022-11-26T08:29:20.626Z,59.20
2022-11-26T08:31:50.650Z,58.90
2022-11-26T08:34:21.395Z,56.50
2022-11-26T08:36:51.982Z,55.30
2022-11-26T08:39:22.075Z,58.60
2022-11-26T08:41:52.829Z,60.50
2022-11-26T08:44:23.118Z,56.20
2022-11-26T08:46:53.066Z,58.60
2022-11-26T08:49:23.382Z,58.30
2022-11-26T08:51:55.358Z,61.40
2022-11-26T08:54:25.968Z,60.40
2022-11-26T08:56:56.447Z,61.30
2022-11-26T08:59:26.657Z,60.90
2022-11-26T09:01:58.139Z,67.10
2022-11-26T09:04:31.468Z,59.50
2022-11-26T09:07:01.818Z,60.10
2022-11-26T09:09:32.000Z,59.70
2022-11-26T09:12:05.957Z,56.20
2022-11-26T09:14:39.901Z,55.20
2022-11-26T09:17:11.976Z,55.20
2022-11-26T09:19:42.328Z,55.30
2022-11-26T09:22:12.313Z,54.60
2022-11-26T09:24:43.037Z,52.40
2022-11-26T09:27:13.779Z,52.70
2022-11-26T09:29:44.047Z,51.40
2022-11-26T09:32:33.930Z,53.10
2022-11-26T09:35:04.417Z,56.40
2022-11-26T09:37:34.387Z,52.30
2022-11-26T09:40:04.759Z,56.70
2022-11-26T09:42:49.095Z,55.50
2022-11-26T09:45:37.923Z,52.70
2022-11-26T09:48:16.268Z,59.00
2022-11-26T09:50:48.107Z,56.70
2022-11-26T09:53:22.504Z,54.20
2022-11-26T09:55:55.502Z,54.90
2022-11-26T09:58:33.487Z,56.80
2022-11-26T10:01:06.717Z,61.60
2022-11-26T10:03:39.431Z,57.30
2022-11-26T10:06:19.307Z,65.80
2022-11-26T10:09:26.039Z,60.40
2022-11-26T10:12:02.855Z,62.10
2022-11-26T10:14:46.517Z,61.60
2022-11-26T10:17:34.026Z,55.40
2022-11-26T10:20:23.013Z,54.80
2022-11-26T10:22:57.720Z,56.70
2022-11-26T10:25:39.187Z,59.80
2022-11-26T10:28:20.356Z,64.30
2022-11-26T10:31:02.509Z,58.90
2022-11-26T10:33:49.960Z,66.10
2022-11-26T10:36:26.618Z,64.10
2022-11-26T10:38:59.869Z,65.10
2022-11-26T10:41:36.510Z,63.40
2022-11-26T10:44:33.333Z,56.30
2022-11-26T10:47:25.449Z,51.90
2022-11-26T10:50:45.434Z,49.80
2022-11-26T10:53:25.140Z,55.70
2022-11-26T10:56:05.590Z,48.40
2022-11-26T10:58:48.083Z,50.80
2022-11-26T11:01:26.439Z,53.30
2022-11-26T11:04:08.811Z,50.10
2022-11-26T11:06:46.652Z,50.70
2022-11-26T11:09:36.640Z,51.30
2022-11-26T11:12:27.884Z,49.90
2022-11-26T11:15:30.923Z,46.30
2022-11-26T11:18:16.460Z,45.50
2022-11-26T11:24:00.138Z,45.80
2022-11-26T11:26:25.247Z,49.50
2022-11-26T11:28:57.917Z,45.40
2022-11-26T11:31:29.362Z,45.20
2022-11-26T11:34:18.298Z,40.00
2022-11-26T11:37:00.661Z,39.60
2022-11-26T11:39:32.853Z,45.00
2022-11-26T11:42:17.597Z,45.40
2022-11-26T11:44:49.669Z,39.20
2022-11-26T11:47:31.697Z,41.40
2022-11-26T11:50:17.219Z,39.40
2022-11-26T11:52:58.223Z,33.10
2022-11-26T11:55:46.588Z,41.80
2022-11-26T11:58:32.669Z,34.90
2022-11-26T12:01:12.158Z,37.50
2022-11-26T12:04:19.759Z,36.50
2022-11-26T12:07:00.290Z,38.00
2022-11-26T12:09:37.259Z,39.40
2022-11-26T12:12:17.437Z,35.00
2022-11-26T12:14:52.379Z,34.60
2022-11-26T12:17:33.432Z,39.00
2022-11-26T12:20:15.134Z,42.20
2022-11-26T12:22:51.382Z,43.30
2022-11-26T12:25:33.530Z,37.60
2022-11-26T12:28:12.897Z,38.10
2022-11-26T12:30:52.228Z,38.80
2022-11-26T12:33:30.267Z,44.70
2022-11-26T12:36:05.728Z,43.40
2022-11-26T12:38:43.897Z,42.40
2022-11-26T12:41:19.574Z,46.10
2022-11-26T12:43:57.288Z,42.50
2022-11-26T12:46:35.518Z,41.80
2022-11-26T12:49:16.145Z,44.20
2022-11-26T12:51:50.620Z,44.60
2022-11-26T12:54:27.838Z,42.80
2022-11-26T12:57:03.480Z,44.10
2022-11-26T12:59:38.867Z,42.90
2022-11-26T13:02:21.342Z,44.80
2022-11-26T13:04:51.944Z,41.70
2022-11-26T13:07:36.066Z,44.10
2022-11-26T13:12:58.769Z,43.00
2022-11-26T13:15:34.482Z,43.20
2022-11-26T13:18:13.948Z,42.50
2022-11-26T13:21:03.648Z,43.40
2022-11-26T13:23:50.367Z,41.50
2022-11-26T13:26:37.487Z,63.10
2022-11-26T13:29:32.926Z,48.10
2022-11-26T13:32:35.986Z,46.20
2022-11-26T13:35:24.138Z,48.40
2022-11-26T13:38:10.237Z,56.70
2022-11-26T13:41:08.382Z,60.70
2022-11-26T13:44:20.818Z,59.40
2022-11-26T13:46:56.517Z,61.70
2022-11-26T13:49:34.418Z,64.00
2022-11-26T13:52:10.908Z,62.90
2022-11-26T13:54:45.774Z,75.60
2022-11-26T13:57:19.306Z,68.50
2022-11-26T13:59:51.906Z,62.70
2022-11-26T14:02:42.244Z,66.20
2022-11-26T14:05:14.909Z,66.00
2022-11-26T14:07:46.393Z,66.00
2022-11-26T14:10:41.897Z,82.00
2022-11-26T14:13:19.337Z,72.60
2022-11-26T14:16:01.348Z,95.30
2022-11-26T14:18:59.469Z,75.80
2022-11-26T14:21:30.776Z,73.50
2022-11-26T14:24:01.937Z,78.20
2022-11-26T14:26:36.975Z,78.10
2022-11-26T14:29:15.126Z,77.80
2022-11-26T14:31:51.368Z,70.90
2022-11-26T14:34:30.235Z,80.70
2022-11-26T14:37:01.654Z,76.90
2022-11-26T14:39:32.617Z,82.00
2022-11-26T14:42:06.378Z,77.90
2022-11-26T14:44:37.072Z,97.90
2022-11-26T14:47:17.074Z,144.40
2022-11-26T14:49:54.099Z,111.10
2022-11-26T14:52:27.811Z,104.80
2022-11-26T14:55:00.017Z,106.00
2022-11-26T14:57:39.166Z,104.70
2022-11-26T15:00:23.821Z,119.70
2022-11-26T15:02:54.849Z,101.90
2022-11-26T15:05:26.695Z,86.60
2022-11-26T15:08:01.490Z,80.50
2022-11-26T15:10:41.267Z,77.70
2022-11-26T15:13:17.017Z,78.60
2022-11-26T15:15:53.907Z,74.70
2022-11-26T15:18:29.258Z,74.10
2022-11-26T15:21:01.457Z,74.50
2022-11-26T15:23:39.418Z,75.40
2022-11-26T15:26:18.177Z,72.10
2022-11-26T15:28:49.228Z,78.10
2022-11-26T15:31:19.709Z,80.00
2022-11-26T15:33:51.147Z,81.60
2022-11-26T15:36:21.720Z,77.10
2022-11-26T15:39:07.746Z,71.30
2022-11-26T15:41:42.854Z,80.90
2022-11-26T15:44:23.595Z,76.10
2022-11-26T15:46:56.148Z,86.20
2022-11-26T15:49:29.389Z,75.00
2022-11-26T15:52:04.240Z,65.70
2022-11-26T15:55:04.683Z,146.00
2022-11-26T15:57:35.726Z,109.10
2022-11-26T16:02:40.665Z,70.80
2022-11-26T16:05:28.337Z,74.40
2022-11-26T16:08:02.483Z,64.20
2022-11-26T16:10:35.631Z,47.80
2022-11-26T16:13:22.597Z,51.50
2022-11-26T16:16:01.217Z,46.00
2022-11-26T16:18:37.177Z,40.70
2022-11-26T16:21:16.160Z,40.80
2022-11-26T16:23:56.658Z,36.30
2022-11-26T16:26:27.874Z,40.40
2022-11-26T16:29:05.413Z,36.40
2022-11-26T16:31:44.744Z,39.90
2022-11-26T16:34:30.517Z,42.10
2022-11-26T16:37:23.833Z,36.20
2022-11-26T16:40:02.741Z,39.20
2022-11-26T16:42:34.337Z,37.90
2022-11-26T16:45:04.877Z,37.40
2022-11-26T16:47:39.305Z,31.60
2022-11-26T16:50:21.257Z,35.70
2022-11-26T16:52:51.727Z,34.60
2022-11-26T16:55:23.047Z,34.50
2022-11-26T16:57:56.763Z,36.70
2022-11-26T17:00:27.937Z,34.20
2022-11-26T17:02:58.404Z,31.80
2022-11-26T17:05:28.377Z,29.60
2022-11-26T17:08:02.041Z,32.20
2022-11-26T17:13:00.878Z,26.50
2022-11-26T17:15:30.958Z,29.40
2022-11-26T17:18:19.867Z,36.80
2022-11-26T17:20:53.413Z,36.40
2022-11-26T17:23:29.091Z,32.50
2022-11-26T17:26:00.764Z,37.60
2022-11-26T17:28:30.857Z,36.30
2022-11-26T17:31:01.027Z,41.60
2022-11-26T17:33:31.097Z,44.50
2022-11-26T17:36:01.553Z,44.10
2022-11-26T17:38:32.792Z,52.90
2022-11-26T17:41:03.438Z,50.00
2022-11-26T17:43:35.997Z,47.00
2022-11-26T17:46:10.408Z,43.90
2022-11-26T17:48:41.110Z,48.90
2022-11-26T17:51:14.157Z,45.50
2022-11-26T17:53:44.897Z,53.90
2022-11-26T17:56:19.169Z,48.70
2022-11-26T17:58:50.169Z,48.50
2022-11-26T18:01:20.719Z,48.70
2022-11-26T18:03:52.161Z,51.10
2022-11-26T18:06:34.436Z,63.40
2022-11-26T18:09:04.666Z,61.40
2022-11-26T18:11:47.227Z,53.50
2022-11-26T18:14:17.930Z,58.00
2022-11-26T18:16:48.237Z,62.30
2022-11-26T18:19:19.757Z,52.60
2022-11-26T18:21:52.309Z,57.60
2022-11-26T18:24:22.857Z,54.00
2022-11-26T18:26:56.039Z,48.00
2022-11-26T18:29:27.421Z,59.40
2022-11-26T18:31:57.577Z,58.60
2022-11-26T18:34:30.217Z,55.70
2022-11-26T18:37:01.940Z,45.70
2022-11-26T18:39:34.836Z,54.80
2022-11-26T18:44:59.172Z,50.70
2022-11-26T18:47:29.097Z,46.10
2022-11-26T18:49:59.303Z,51.80
2022-11-26T18:52:31.300Z,48.70
2022-11-26T18:55:04.498Z,46.90
2022-11-26T19:00:06.608Z,43.20
2022-11-26T19:02:38.339Z,41.40
2022-11-26T19:05:12.319Z,44.70
2022-11-26T19:07:45.369Z,37.60
2022-11-26T19:10:17.338Z,42.30
2022-11-26T19:12:49.198Z,41.50
2022-11-26T19:15:20.309Z,38.60
2022-11-26T19:17:50.325Z,43.60
2022-11-26T19:20:22.306Z,39.60
2022-11-26T19:22:54.744Z,40.10
2022-11-26T19:25:27.929Z,38.80
2022-11-26T19:28:05.304Z,34.10
2022-11-26T19:30:38.266Z,34.40
2022-11-26T19:33:11.090Z,35.80
2022-11-26T19:35:43.528Z,30.60
2022-11-26T19:38:16.217Z,26.50
2022-11-26T19:40:50.381Z,28.20
2022-11-26T19:43:22.163Z,32.30
2022-11-26T19:46:01.122Z,28.80
2022-11-26T19:48:34.248Z,31.80
2022-11-26T19:53:36.210Z,27.70
2022-11-26T19:56:13.897Z,27.70
2022-11-26T19:58:44.517Z,28.10
2022-11-26T20:01:16.691Z,25.60
2022-11-26T20:03:46.728Z,29.40
2022-11-26T20:06:18.975Z,25.60
2022-11-26T20:08:49.758Z,25.90
2022-11-26T20:11:23.748Z,25.80
2022-11-26T20:13:53.838Z,26.10
2022-11-26T20:16:27.095Z,27.90
2022-11-26T20:18:57.677Z,25.80
2022-11-26T20:21:31.598Z,25.90
2022-11-26T20:24:05.047Z,31.60
2022-11-26T20:26:37.447Z,24.80
2022-11-26T20:29:10.634Z,19.70
2022-11-26T20:31:44.407Z,25.80
2022-11-26T20:34:19.034Z,26.40
2022-11-26T20:36:51.917Z,24.40
2022-11-26T20:39:28.800Z,27.10
2022-11-26T20:41:59.258Z,27.60
2022-11-26T20:44:29.718Z,29.10
2022-11-26T20:46:59.578Z,29.80
2022-11-26T20:49:38.871Z,29.40
2022-11-26T20:52:13.697Z,33.20
2022-11-26T20:54:43.999Z,29.20
2022-11-26T20:57:17.625Z,35.30
2022-11-26T20:59:51.363Z,34.40
2022-11-26T21:02:22.048Z,32.20
2022-11-26T21:04:52.090Z,28.90
2022-11-26T21:07:22.217Z,33.00
2022-11-26T21:09:52.470Z,32.50
2022-11-26T21:12:22.408Z,28.90
2022-11-26T21:14:53.118Z,26.10
2022-11-26T21:17:23.215Z,26.10
2022-11-26T21:19:53.716Z,26.40
2022-11-26T21:22:24.339Z,28.90
2022-11-26T21:24:54.828Z,29.50
2022-11-26T21:27:25.590Z,27.90
2022-11-26T21:29:55.520Z,27.10
2022-11-26T21:32:28.699Z,28.70
2022-11-26T21:34:59.439Z,30.70
2022-11-26T21:37:29.938Z,29.40
2022-11-26T21:39:59.768Z,27.80
2022-11-26T21:42:29.861Z,32.40
2022-11-26T21:44:59.899Z,31.20
2022-11-26T21:47:30.058Z,29.80
2022-11-26T21:49:59.858Z,29.30
2022-11-26T21:52:30.257Z,29.30
2022-11-26T21:55:03.667Z,29.40
2022-11-26T22:00:06.937Z,26.00
2022-11-26T22:05:08.473Z,29.60
2022-11-26T22:07:38.507Z,27.50
2022-11-26T22:10:11.359Z,27.20
2022-11-26T22:15:11.939Z,26.60
2022-11-26T22:17:41.819Z,26.90
2022-11-26T22:20:13.887Z,30.30
2022-11-26T22:22:43.835Z,27.50
2022-11-26T22:25:13.660Z,29.60
2022-11-26T22:27:43.607Z,30.50
2022-11-26T22:30:14.540Z,31.80
2022-11-26T22:32:44.581Z,29.50
2022-11-26T22:35:14.562Z,33.00
2022-11-26T22:37:44.691Z,27.50
2022-11-26T22:40:15.119Z,30.80
2022-11-26T22:42:45.119Z,28.50
2022-11-26T22:45:15.281Z,28.40
2022-11-26T22:47:48.550Z,34.20
2022-11-26T22:50:22.321Z,32.10
2022-11-26T22:52:52.244Z,30.60
2022-11-26T22:55:23.072Z,30.30
2022-11-26T22:57:53.002Z,30.20
2022-11-26T23:00:46.609Z,29.40
2022-11-26T23:03:17.256Z,30.40
2022-11-26T23:05:48.312Z,33.20
2022-11-26T23:08:18.383Z,31.00
2022-11-26T23:10:48.929Z,27.80
2022-11-26T23:13:18.804Z,30.70
2022-11-26T23:15:48.872Z,31.20
2022-11-26T23:18:18.841Z,30.30
2022-11-26T23:20:48.641Z,30.70
2022-11-26T23:23:19.010Z,26.10
2022-11-26T23:25:48.781Z,31.80
2022-11-26T23:28:18.909Z,29.90
2022-11-26T23:30:48.861Z,34.80
2022-11-26T23:33:18.845Z,28.70
2022-11-26T23:35:48.734Z,31.50
2022-11-26T23:38:18.702Z,27.20
2022-11-26T23:40:54.805Z,29.40
2022-11-26T23:43:25.885Z,35.20
2022-11-26T23:46:02.428Z,32.40
2022-11-26T23:48:33.051Z,36.30
2022-11-26T23:51:05.961Z,34.90
2022-11-26T23:53:37.063Z,32.70
2022-11-26T23:56:11.761Z,36.00
2022-11-26T23:58:41.661Z,34.20
